Upstream stations:
Downstream station:
SHEF ID: BFFO2 Cimarron River near Buffalo, OK
STATION TYPE:
Regulating: Stage = 6.00, Flow = 750
PRECIP STAGE RIV-FLOW BAT-LOAD
in ft cfs volt
Ccp-Rev Ccp-Rev Ccp-Rev Ccp-Rev
(US/Central)
01/14 00:00 0.00 3.28 15 12.73
01/14 01:00 0.00 3.30 16 12.73
01/14 02:00 0.00 3.29 16 12.65
01/14 03:00 0.00 3.28 15 12.65
01/14 04:00 0.00 3.28 15 12.65
01/14 05:00 0.00 3.27 14 12.65
01/14 06:00 0.00 3.27 14 12.65
01/14 07:00 0.00 3.29 16 12.57
01/14 08:00 0.00 3.26 13 12.57
01/14 09:00 0.00 3.27 14 12.57
01/14 10:00 0.00 3.27 14 12.97
01/14 11:00 0.00 3.26 13 13.05
01/14 12:00 0.00 3.30 16 13.53
01/14 13:00 0.00 3.31 17 13.53
01/14 14:00 0.00 3.30 16 13.60
01/14 15:00 0.00 3.32 18 13.53
01/14 16:00 0.00 3.28 15 13.53
01/14 17:00 0.00 3.28 15 13.53
01/14 18:00 0.00 3.27 14 13.05
01/14 19:00 0.00 3.27 14 12.89
01/14 20:00 0.00 3.30 16 12.81
01/14 21:00 0.00 3.29 16 12.81
01/14 22:00 0.00 3.32 18 12.73
01/14 23:00 0.00 3.30 16 12.73